createdAt,value
2022-11-05T00:00:50.303Z,95737.56
2022-11-05T00:02:07.335Z,95736.19
2022-11-05T00:03:24.560Z,95740.25
2022-11-05T00:04:41.699Z,95742.19
2022-11-05T00:06:00.575Z,95739.59
2022-11-05T00:07:22.715Z,95739.50
2022-11-05T00:08:39.784Z,95743.97
2022-11-05T00:09:44.664Z,95739.47
2022-11-05T00:10:46.999Z,95740.13
2022-11-05T00:12:06.680Z,95740.00
2022-11-05T00:13:25.519Z,95741.03
2022-11-05T00:14:42.639Z,95742.94
2022-11-05T00:15:59.888Z,95747.25
2022-11-05T00:17:04.500Z,95739.38
2022-11-05T00:18:06.491Z,95747.19
2022-11-05T00:19:11.081Z,95744.66
2022-11-05T00:20:13.760Z,95750.78
2022-11-05T00:21:30.611Z,95748.34
2022-11-05T00:22:47.649Z,95756.03
2022-11-05T00:24:04.714Z,95745.63
2022-11-05T00:25:22.184Z,95749.28
2022-11-05T00:26:24.226Z,95744.91
2022-11-05T00:27:31.445Z,95754.44
2022-11-05T00:28:36.673Z,95744.94
2022-11-05T00:29:38.657Z,95749.22
2022-11-05T00:30:43.342Z,95748.44
2022-11-05T00:31:45.404Z,95753.38
2022-11-05T00:32:51.495Z,95755.84
2022-11-05T00:33:53.492Z,95759.31
2022-11-05T00:34:58.088Z,95755.06
2022-11-05T00:36:04.767Z,95756.09
2022-11-05T00:37:06.804Z,95760.22
2022-11-05T00:38:11.541Z,95767.88
2022-11-05T00:39:13.580Z,95764.56
2022-11-05T00:40:18.270Z,95767.97
2022-11-05T00:41:20.231Z,95766.50
2022-11-05T00:42:37.296Z,95767.44
2022-11-05T00:43:56.921Z,95767.81
2022-11-05T00:45:05.012Z,95770.47
2022-11-05T00:46:09.823Z,95775.75
2022-11-05T00:47:26.799Z,95769.50
2022-11-05T00:48:43.824Z,95764.47
2022-11-05T00:49:45.822Z,95771.19
2022-11-05T00:50:50.433Z,95767.66
2022-11-05T00:52:12.531Z,95770.41
2022-11-05T00:53:17.110Z,95778.28
2022-11-05T00:54:19.269Z,95773.25
2022-11-05T00:55:23.894Z,95782.78
2022-11-05T00:56:28.512Z,95784.31
2022-11-05T00:57:30.537Z,95787.94
2022-11-05T00:58:35.142Z,95787.16
2022-11-05T00:59:39.769Z,95783.72
2022-11-05T01:00:46.408Z,95785.25
2022-11-05T01:01:48.496Z,95781.00
2022-11-05T01:02:53.354Z,95791.19
2022-11-05T01:03:58.023Z,95788.31
2022-11-05T01:05:00.043Z,95784.88
2022-11-05T01:06:10.753Z,95778.97
2022-11-05T01:07:12.825Z,95785.81
2022-11-05T01:08:18.877Z,95785.88
2022-11-05T01:09:20.876Z,95784.09
2022-11-05T01:10:25.930Z,95791.03
2022-11-05T01:11:37.340Z,95789.38
2022-11-05T01:12:39.842Z,95788.31
2022-11-05T01:13:44.503Z,95797.94
2022-11-05T01:14:49.191Z,95792.72
2022-11-05T01:15:54.174Z,95795.41
2022-11-05T01:16:56.259Z,95800.53
2022-11-05T01:18:00.905Z,95792.06
2022-11-05T01:19:05.650Z,95799.56
2022-11-05T01:20:11.248Z,95797.63
2022-11-05T01:21:14.616Z,95810.88
2022-11-05T01:22:19.219Z,95794.84
2022-11-05T01:23:23.771Z,95801.41
2022-11-05T01:24:25.872Z,95805.69
2022-11-05T01:25:30.531Z,95810.19
2022-11-05T01:26:32.524Z,95804.34
2022-11-05T01:27:38.215Z,95811.03
2022-11-05T01:28:40.390Z,95809.38
2022-11-05T01:29:45.107Z,95820.44
2022-11-05T01:30:58.399Z,95806.56
2022-11-05T01:32:00.795Z,95820.09
2022-11-05T01:33:06.104Z,95812.34
2022-11-05T01:34:08.260Z,95815.69
2022-11-05T01:35:16.975Z,95814.81
2022-11-05T01:36:19.447Z,95806.94
2022-11-05T01:37:24.018Z,95819.19
2022-11-05T01:38:26.050Z,95814.72
2022-11-05T01:39:30.750Z,95815.56
2022-11-05T01:40:35.327Z,95812.34
2022-11-05T01:41:37.415Z,95813.88
2022-11-05T01:42:42.158Z,95817.50
2022-11-05T01:43:49.499Z,95823.41
2022-11-05T01:45:00.945Z,95813.75
2022-11-05T01:46:05.822Z,95823.38
2022-11-05T01:47:14.492Z,95821.72
2022-11-05T01:48:23.419Z,95822.66
2022-11-05T01:49:31.859Z,95827.69
2022-11-05T01:50:47.340Z,95814.53
2022-11-05T01:51:49.671Z,95819.00
2022-11-05T01:52:59.860Z,95824.16
2022-11-05T01:54:07.916Z,95823.94
2022-11-05T01:55:11.359Z,95816.53
2022-11-05T01:56:19.145Z,95816.69
2022-11-05T01:57:21.527Z,95816.69
2022-11-05T01:58:31.623Z,95814.94
2022-11-05T01:59:37.986Z,95817.38
2022-11-05T02:00:43.950Z,95821.50
2022-11-05T02:01:48.955Z,95822.53
2022-11-05T02:02:53.775Z,95827.44
2022-11-05T02:04:02.659Z,95826.13
2022-11-05T02:05:08.196Z,95827.44
2022-11-05T02:06:14.068Z,95829.34
2022-11-05T02:07:17.390Z,95816.31
2022-11-05T02:08:31.734Z,95815.81
2022-11-05T02:09:39.588Z,95824.97
2022-11-05T02:10:47.580Z,95822.66
2022-11-05T02:11:51.178Z,95823.59
2022-11-05T02:12:55.854Z,95827.16
2022-11-05T02:13:58.039Z,95828.16
2022-11-05T02:15:03.116Z,95827.97
2022-11-05T02:16:17.858Z,95832.22
2022-11-05T02:17:30.904Z,95832.72
2022-11-05T02:18:47.165Z,95832.03
2022-11-05T02:20:26.863Z,95828.72
2022-11-05T02:21:46.571Z,95833.31
2022-11-05T02:23:20.021Z,95831.66
2022-11-05T02:24:57.564Z,95837.34
2022-11-05T02:26:43.384Z,95847.84
2022-11-05T02:28:13.290Z,95841.00
2022-11-05T02:29:47.757Z,95835.84
2022-11-05T02:30:59.687Z,95835.97
2022-11-05T02:32:09.779Z,95846.94
2022-11-05T02:33:33.941Z,95845.19
2022-11-05T02:34:49.418Z,95842.63
2022-11-05T02:36:10.593Z,95839.22
2022-11-05T02:37:20.046Z,95852.94
2022-11-05T02:38:39.183Z,95841.72
2022-11-05T02:39:49.731Z,95844.41
2022-11-05T02:41:04.342Z,95844.13
2022-11-05T02:42:14.286Z,95841.47
2022-11-05T02:43:27.737Z,95842.34
2022-11-05T02:44:40.525Z,95843.16
2022-11-05T02:45:55.297Z,95838.72
2022-11-05T02:47:07.898Z,95836.78
2022-11-05T02:48:22.604Z,95840.59
2022-11-05T02:49:34.708Z,95846.53
2022-11-05T02:50:48.326Z,95842.00
2022-11-05T02:51:56.883Z,95847.22
2022-11-05T02:53:05.033Z,95843.03
2022-11-05T02:54:13.028Z,95849.13
2022-11-05T02:55:25.764Z,95842.91
2022-11-05T02:56:31.407Z,95847.09
2022-11-05T02:57:39.121Z,95848.97
2022-11-05T02:58:42.217Z,95848.75
2022-11-05T02:59:46.927Z,95847.94
2022-11-05T03:00:51.909Z,95842.00
2022-11-05T03:01:57.385Z,95842.78
2022-11-05T03:03:03.362Z,95846.91
2022-11-05T03:04:11.185Z,95843.56
2022-11-05T03:05:13.301Z,95836.38
2022-11-05T03:06:34.655Z,95840.69
2022-11-05T03:07:50.572Z,95843.16
2022-11-05T03:09:26.196Z,95844.13
2022-11-05T03:10:44.340Z,95847.38
2022-11-05T03:11:56.539Z,95851.94
2022-11-05T03:13:13.804Z,95845.44
2022-11-05T03:14:23.274Z,95844.75
2022-11-05T03:15:40.812Z,95846.81
2022-11-05T03:16:49.034Z,95850.97
2022-11-05T03:18:01.994Z,95853.75
2022-11-05T03:19:13.527Z,95848.63
2022-11-05T03:20:22.323Z,95852.81
2022-11-05T03:21:35.380Z,95853.91
2022-11-05T03:22:44.286Z,95862.50
2022-11-05T03:23:52.135Z,95870.22
2022-11-05T03:25:03.306Z,95865.06
2022-11-05T03:26:12.789Z,95865.06
2022-11-05T03:27:20.647Z,95867.56
2022-11-05T03:28:27.894Z,95866.50
2022-11-05T03:29:37.520Z,95863.13
2022-11-05T03:30:42.621Z,95867.41
2022-11-05T03:31:50.431Z,95862.78
2022-11-05T03:32:57.850Z,95863.78
2022-11-05T03:34:04.065Z,95873.47
2022-11-05T03:35:13.415Z,95867.66
2022-11-05T03:36:24.539Z,95873.72
2022-11-05T03:37:30.111Z,95871.28
2022-11-05T03:38:39.600Z,95870.84
2022-11-05T03:39:44.762Z,95873.19
2022-11-05T03:40:52.404Z,95870.13
2022-11-05T03:41:56.118Z,95872.75
2022-11-05T03:43:02.251Z,95876.03
2022-11-05T03:44:06.835Z,95874.56
2022-11-05T03:45:16.251Z,95879.03
2022-11-05T03:46:23.473Z,95882.50
2022-11-05T03:47:43.756Z,95878.25
2022-11-05T03:48:53.201Z,95882.66
2022-11-05T03:50:04.920Z,95883.34
2022-11-05T03:51:17.169Z,95882.44
2022-11-05T03:52:20.979Z,95875.41
2022-11-05T03:53:29.010Z,95882.50
2022-11-05T03:54:31.148Z,95880.81
2022-11-05T03:55:41.292Z,95881.72
2022-11-05T03:56:51.417Z,95884.88
2022-11-05T03:57:58.621Z,95887.41
2022-11-05T03:59:02.828Z,95885.84
2022-11-05T04:00:11.708Z,95885.66
2022-11-05T04:01:14.033Z,95891.00
2022-11-05T04:02:21.409Z,95888.50
2022-11-05T04:03:23.455Z,95888.56
2022-11-05T04:04:28.138Z,95892.75
2022-11-05T04:05:30.712Z,95891.78
2022-11-05T04:06:50.830Z,95896.28
2022-11-05T04:08:13.051Z,95896.16
2022-11-05T04:09:31.273Z,95902.25
2022-11-05T04:11:00.108Z,95899.53
2022-11-05T04:12:17.196Z,95890.16
2022-11-05T04:13:27.983Z,95890.25
2022-11-05T04:14:31.109Z,95896.16
2022-11-05T04:15:55.971Z,95897.59
2022-11-05T04:17:07.108Z,95898.94
2022-11-05T04:18:09.138Z,95901.66
2022-11-05T04:19:11.210Z,95900.03
2022-11-05T04:20:28.489Z,95902.56
2022-11-05T04:21:45.587Z,95901.72
2022-11-05T04:23:14.021Z,95906.13
2022-11-05T04:24:18.660Z,95911.19
2022-11-05T04:25:22.111Z,95907.13
2022-11-05T04:26:26.713Z,95906.94
2022-11-05T04:27:28.845Z,95903.13
2022-11-05T04:28:45.717Z,95913.59
2022-11-05T04:30:02.859Z,95915.53
2022-11-05T04:31:07.819Z,95909.44
2022-11-05T04:32:09.811Z,95913.88
2022-11-05T04:33:16.272Z,95919.84
2022-11-05T04:34:19.057Z,95919.91
2022-11-05T04:35:23.664Z,95920.69
2022-11-05T04:36:25.678Z,95919.78
2022-11-05T04:37:30.254Z,95924.94
2022-11-05T04:38:37.408Z,95921.59
2022-11-05T04:39:39.406Z,95929.25
2022-11-05T04:40:44.683Z,95917.78
2022-11-05T04:41:48.252Z,95925.31
2022-11-05T04:42:52.863Z,95917.78
2022-11-05T04:43:54.864Z,95928.28
2022-11-05T04:44:59.476Z,95927.34
2022-11-05T04:46:01.575Z,95934.69
2022-11-05T04:47:06.197Z,95927.16
2022-11-05T04:48:08.421Z,95928.88
2022-11-05T04:49:13.038Z,95928.94
2022-11-05T04:50:15.149Z,95932.31
2022-11-05T04:51:20.434Z,95936.00
2022-11-05T04:52:22.395Z,95930.81
2022-11-05T04:53:26.979Z,95928.38
2022-11-05T04:54:31.645Z,95938.34
2022-11-05T04:55:36.247Z,95939.00
2022-11-05T04:56:38.219Z,95936.69
2022-11-05T04:57:43.070Z,95940.19
2022-11-05T04:58:45.442Z,95933.59
2022-11-05T04:59:52.129Z,95940.41
2022-11-05T05:00:54.237Z,95942.28
2022-11-05T05:01:59.163Z,95939.00
2022-11-05T05:03:01.714Z,95937.31
2022-11-05T05:04:06.513Z,95941.72
2022-11-05T05:05:08.900Z,95939.06
2022-11-05T05:06:14.118Z,95943.34
2022-11-05T05:07:16.104Z,95939.97
2022-11-05T05:08:20.965Z,95941.78
2022-11-05T05:09:22.991Z,95945.97
2022-11-05T05:10:30.284Z,95948.50
2022-11-05T05:11:32.341Z,95942.56
2022-11-05T05:12:37.449Z,95942.38
2022-11-05T05:13:39.542Z,95944.94
2022-11-05T05:14:44.320Z,95942.25
2022-11-05T05:15:46.306Z,95947.53
2022-11-05T05:16:50.880Z,95944.03
2022-11-05T05:17:56.173Z,95949.19
2022-11-05T05:18:58.203Z,95952.56
2022-11-05T05:20:15.264Z,95948.28
2022-11-05T05:21:33.619Z,95950.03
2022-11-05T05:22:38.417Z,95956.22
2022-11-05T05:23:40.500Z,95952.91
2022-11-05T05:24:49.927Z,95955.31
2022-11-05T05:25:59.466Z,95952.91
2022-11-05T05:27:04.153Z,95960.75
2022-11-05T05:28:06.164Z,95964.16
2022-11-05T05:29:11.720Z,95965.91
2022-11-05T05:30:14.011Z,95966.72
2022-11-05T05:31:18.573Z,95967.50
2022-11-05T05:32:20.580Z,95963.84
2022-11-05T05:33:25.208Z,95967.44
2022-11-05T05:34:27.197Z,95961.53
2022-11-05T05:35:31.752Z,95964.16
2022-11-05T05:36:34.048Z,95958.22
2022-11-05T05:37:38.687Z,95961.63
2022-11-05T05:38:40.796Z,95965.19
2022-11-05T05:39:46.315Z,95967.78
2022-11-05T05:40:49.674Z,95961.81
2022-11-05T05:41:56.867Z,95962.66
2022-11-05T05:42:59.036Z,95967.03
2022-11-05T05:44:03.838Z,95967.94
2022-11-05T05:45:07.068Z,95967.81
2022-11-05T05:46:14.205Z,95971.88
2022-11-05T05:47:16.196Z,95972.16
2022-11-05T05:48:20.913Z,95973.56
2022-11-05T05:49:22.867Z,95974.16
2022-11-05T05:50:27.477Z,95975.78
2022-11-05T05:51:29.495Z,95981.16
2022-11-05T05:52:34.841Z,95976.00
2022-11-05T05:53:37.502Z,95977.63
2022-11-05T05:54:43.093Z,95977.06
2022-11-05T05:55:45.266Z,95981.97
2022-11-05T05:56:49.856Z,95978.00
2022-11-05T05:57:54.688Z,95980.53
2022-11-05T05:58:59.399Z,95982.34
2022-11-05T06:00:02.030Z,95981.97
2022-11-05T06:01:09.599Z,95987.25
2022-11-05T06:02:13.549Z,95992.41
2022-11-05T06:03:18.302Z,95999.13
2022-11-05T06:04:23.429Z,95990.53
2022-11-05T06:05:25.481Z,95988.88
2022-11-05T06:06:30.211Z,95997.31
2022-11-05T06:07:36.982Z,95996.56
2022-11-05T06:08:42.659Z,95998.34
2022-11-05T06:09:44.679Z,96007.75
2022-11-05T06:10:53.468Z,96004.47
2022-11-05T06:11:55.543Z,96005.44
2022-11-05T06:13:04.743Z,96001.88
2022-11-05T06:14:07.013Z,96008.00
2022-11-05T06:15:12.519Z,96007.22
2022-11-05T06:16:14.578Z,96012.25
2022-11-05T06:17:19.181Z,96009.63
2022-11-05T06:18:21.187Z,96004.38
2022-11-05T06:19:25.934Z,96013.69
2022-11-05T06:20:27.892Z,96003.25
2022-11-05T06:21:32.422Z,96008.41
2022-11-05T06:22:34.432Z,96011.00
2022-11-05T06:23:41.079Z,96011.91
2022-11-05T06:24:43.118Z,96012.09
2022-11-05T06:25:47.768Z,96022.22
2022-11-05T06:26:49.818Z,96014.66
2022-11-05T06:27:54.463Z,96013.00
2022-11-05T06:29:01.667Z,96021.31
2022-11-05T06:30:04.522Z,96018.19
2022-11-05T06:31:09.286Z,96026.84
2022-11-05T06:32:11.297Z,96024.31
2022-11-05T06:33:15.949Z,96034.63
2022-11-05T06:34:17.939Z,96025.22
2022-11-05T06:35:22.567Z,96026.06
2022-11-05T06:36:24.576Z,96031.22
2022-11-05T06:37:29.155Z,96035.34
2022-11-05T06:38:33.500Z,96036.97
2022-11-05T06:39:38.116Z,96031.75
2022-11-05T06:40:40.241Z,96034.25
2022-11-05T06:42:12.055Z,96042.22
2022-11-05T06:43:10.903Z,96044.13
2022-11-05T06:44:15.684Z,96044.13
2022-11-05T06:45:20.249Z,96046.88
2022-11-05T06:46:22.236Z,96040.84
2022-11-05T06:47:27.057Z,96047.75
2022-11-05T06:48:29.671Z,96046.03
2022-11-05T06:49:34.311Z,96050.00
2022-11-05T06:50:36.342Z,96048.44
2022-11-05T06:51:40.932Z,96051.03
2022-11-05T06:52:42.945Z,96057.69
2022-11-05T06:53:47.608Z,96056.66
2022-11-05T06:54:49.648Z,96060.06
2022-11-05T06:55:54.259Z,96063.56
2022-11-05T06:56:56.269Z,96064.50
2022-11-05T06:58:00.872Z,96069.56
2022-11-05T06:59:03.021Z,96063.50
2022-11-05T07:00:12.036Z,96072.00
2022-11-05T07:01:16.839Z,96069.56
2022-11-05T07:02:19.031Z,96070.28
2022-11-05T07:03:23.740Z,96069.50
2022-11-05T07:04:25.742Z,96076.34
2022-11-05T07:05:30.342Z,96081.69
2022-11-05T07:06:37.141Z,96083.53
2022-11-05T07:07:39.663Z,96077.63
2022-11-05T07:08:44.304Z,96081.69
2022-11-05T07:09:46.314Z,96085.16
2022-11-05T07:10:51.377Z,96084.16
2022-11-05T07:11:53.462Z,96081.56
2022-11-05T07:12:59.709Z,96089.25
2022-11-05T07:14:04.492Z,96091.69
2022-11-05T07:15:14.109Z,96090.81
2022-11-05T07:16:16.121Z,96082.88
2022-11-05T07:17:21.184Z,96083.69
2022-11-05T07:18:23.938Z,96093.84
2022-11-05T07:19:28.648Z,96095.31
2022-11-05T07:20:34.182Z,96095.31
2022-11-05T07:21:39.171Z,96102.13
2022-11-05T07:22:41.348Z,96099.38
2022-11-05T07:23:45.972Z,96105.69
2022-11-05T07:24:49.526Z,96103.09
2022-11-05T07:25:54.344Z,96109.09
2022-11-05T07:26:56.412Z,96109.88
2022-11-05T07:28:01.745Z,96106.38
2022-11-05T07:29:03.862Z,96109.88
2022-11-05T07:30:13.114Z,96113.25
2022-11-05T07:31:15.160Z,96116.25
2022-11-05T07:32:19.929Z,96114.50
2022-11-05T07:33:22.229Z,96114.59
2022-11-05T07:34:26.898Z,96116.16
2022-11-05T07:35:29.114Z,96112.47
2022-11-05T07:36:33.959Z,96119.63
2022-11-05T07:37:42.978Z,96118.66
2022-11-05T07:38:47.584Z,96118.28
2022-11-05T07:39:49.627Z,96119.53
2022-11-05T07:40:54.636Z,96127.94
2022-11-05T07:41:57.859Z,96127.00
2022-11-05T07:43:04.176Z,96120.69
2022-11-05T07:44:06.423Z,96133.78
2022-11-05T07:45:14.610Z,96136.47
2022-11-05T07:46:16.662Z,96135.56
2022-11-05T07:47:21.317Z,96139.94
2022-11-05T07:48:25.930Z,96137.28
2022-11-05T07:49:28.003Z,96144.09
2022-11-05T07:50:34.640Z,96140.59
2022-11-05T07:51:36.709Z,96144.09
2022-11-05T07:52:41.508Z,96144.16
2022-11-05T07:53:45.506Z,96154.72
2022-11-05T07:54:50.322Z,96147.81
2022-11-05T07:55:57.268Z,96153.72
2022-11-05T07:56:59.270Z,96153.75
2022-11-05T07:58:03.923Z,96153.94
2022-11-05T07:59:06.223Z,96148.66
2022-11-05T08:00:18.268Z,96153.22
2022-11-05T08:01:20.410Z,96152.94
2022-11-05T08:02:25.468Z,96157.91
2022-11-05T08:03:27.799Z,96163.19
2022-11-05T08:04:32.485Z,96162.16
2022-11-05T08:05:39.336Z,96156.38
2022-11-05T08:06:41.371Z,96158.81
2022-11-05T08:07:45.971Z,96157.31
2022-11-05T08:08:48.076Z,96165.94
2022-11-05T08:09:52.706Z,96160.66
2022-11-05T08:10:57.341Z,96167.47
2022-11-05T08:12:02.839Z,96164.63
2022-11-05T08:13:09.033Z,96169.66
2022-11-05T08:14:11.382Z,96164.50
2022-11-05T08:15:18.808Z,96165.47
2022-11-05T08:16:20.858Z,96165.41
2022-11-05T08:17:25.692Z,96162.72
2022-11-05T08:18:31.791Z,96169.75
2022-11-05T08:19:36.587Z,96168.53
2022-11-05T08:20:38.922Z,96162.91
2022-11-05T08:21:43.715Z,96168.41
2022-11-05T08:22:49.167Z,96166.25
2022-11-05T08:23:51.249Z,96170.00
2022-11-05T08:24:56.011Z,96173.09
2022-11-05T08:25:58.729Z,96170.13
2022-11-05T08:27:03.458Z,96170.13
2022-11-05T08:28:08.174Z,96178.00
2022-11-05T08:29:13.104Z,96177.34
2022-11-05T08:30:17.921Z,96177.25
2022-11-05T08:31:22.522Z,96174.44
2022-11-05T08:32:24.595Z,96177.69
2022-11-05T08:33:31.458Z,96176.06
2022-11-05T08:34:33.727Z,96181.72
2022-11-05T08:35:40.287Z,96173.88
2022-11-05T08:36:46.888Z,96183.56
2022-11-05T08:37:48.971Z,96190.16
2022-11-05T08:38:54.607Z,96186.97
2022-11-05T08:39:59.188Z,96193.88
2022-11-05T08:41:01.284Z,96189.50
2022-11-05T08:42:06.065Z,96190.06
2022-11-05T08:43:10.186Z,96194.16
2022-11-05T08:44:15.115Z,96187.31
2022-11-05T08:45:19.839Z,96189.13
2022-11-05T08:46:24.575Z,96189.38
2022-11-05T08:47:26.617Z,96186.41
2022-11-05T08:48:31.506Z,96189.81
2022-11-05T08:49:36.153Z,96192.66
2022-11-05T08:50:39.117Z,96195.13
2022-11-05T08:51:43.738Z,96195.25
2022-11-05T08:52:45.764Z,96198.34
2022-11-05T08:53:50.401Z,96198.00
2022-11-05T08:54:52.423Z,96197.78
2022-11-05T08:56:01.220Z,96199.44
2022-11-05T08:57:05.922Z,96205.44
2022-11-05T08:58:12.589Z,96197.56
2022-11-05T08:59:17.414Z,96202.94
2022-11-05T09:00:22.195Z,96195.25
2022-11-05T09:01:26.991Z,96199.81
2022-11-05T09:02:29.211Z,96197.78
2022-11-05T09:03:34.016Z,96201.91
2022-11-05T09:04:41.602Z,96206.94
2022-11-05T09:05:43.830Z,96207.97
2022-11-05T09:06:48.603Z,96214.81
2022-11-05T09:07:53.155Z,96213.28
2022-11-05T09:09:01.388Z,96206.16
2022-11-05T09:10:04.097Z,96209.53
2022-11-05T09:11:09.142Z,96198.09
2022-11-05T09:12:14.214Z,96202.31
2022-11-05T09:13:19.904Z,96208.56
2022-11-05T09:14:27.158Z,96211.09
2022-11-05T09:15:32.288Z,96211.94
2022-11-05T09:16:37.077Z,96206.38
2022-11-05T09:17:40.112Z,96209.75
2022-11-05T09:18:44.782Z,96209.50
2022-11-05T09:19:47.375Z,96209.84
2022-11-05T09:20:52.154Z,96209.63
2022-11-05T09:21:59.411Z,96212.97
2022-11-05T09:23:04.136Z,96218.69
2022-11-05T09:24:09.320Z,96212.31
2022-11-05T09:25:11.672Z,96212.31
2022-11-05T09:26:16.951Z,96212.81
2022-11-05T09:27:19.197Z,96211.91
2022-11-05T09:28:25.619Z,96208.81
2022-11-05T09:29:27.809Z,96214.63
2022-11-05T09:30:35.050Z,96208.22
2022-11-05T09:31:39.690Z,96213.53
2022-11-05T09:32:42.141Z,96216.34
2022-11-05T09:33:46.794Z,96215.38
2022-11-05T09:34:50.123Z,96217.47
2022-11-05T09:35:55.722Z,96213.72
2022-11-05T09:36:58.350Z,96211.66
2022-11-05T09:38:03.356Z,96218.88
2022-11-05T09:39:05.645Z,96208.38
2022-11-05T09:40:11.038Z,96202.94
2022-11-05T09:41:23.886Z,96199.78
2022-11-05T09:42:30.374Z,96209.78
2022-11-05T09:43:39.922Z,96202.81
2022-11-05T09:44:46.160Z,96206.66
2022-11-05T09:45:59.442Z,96212.22
2022-11-05T09:47:05.758Z,96218.13
2022-11-05T09:48:17.308Z,96225.22
2022-11-05T09:49:29.153Z,96222.75
2022-11-05T09:50:34.882Z,96221.63
2022-11-05T09:51:40.130Z,96222.09
2022-11-05T09:52:42.138Z,96225.53
2022-11-05T09:53:49.055Z,96226.50
2022-11-05T09:54:51.643Z,96223.75
2022-11-05T09:55:59.109Z,96224.53
2022-11-05T09:57:03.607Z,96232.72
2022-11-05T09:58:18.061Z,96232.13
2022-11-05T09:59:23.375Z,96226.66
2022-11-05T10:00:30.616Z,96232.53
2022-11-05T10:01:38.060Z,96230.13
2022-11-05T10:02:53.263Z,96234.03
2022-11-05T10:04:02.259Z,96236.28
2022-11-05T10:05:10.298Z,96236.31
2022-11-05T10:06:21.618Z,96227.41
2022-11-05T10:07:29.806Z,96234.56
2022-11-05T10:08:35.042Z,96231.81
2022-11-05T10:09:46.462Z,96223.59
2022-11-05T10:10:54.080Z,96230.53
2022-11-05T10:12:16.671Z,96232.63
2022-11-05T10:13:26.085Z,96232.88
2022-11-05T10:14:34.753Z,96230.34
2022-11-05T10:15:43.056Z,96240.66
2022-11-05T10:16:56.513Z,96238.59
2022-11-05T10:18:03.717Z,96239.41
2022-11-05T10:19:12.892Z,96245.44
2022-11-05T10:20:23.674Z,96250.13
2022-11-05T10:21:59.522Z,96249.38
2022-11-05T10:22:59.537Z,96252.66
2022-11-05T10:24:08.594Z,96254.13
2022-11-05T10:25:21.362Z,96254.13
2022-11-05T10:26:30.109Z,96261.34
2022-11-05T10:27:37.019Z,96256.53
2022-11-05T10:28:42.209Z,96257.75
2022-11-05T10:29:45.013Z,96263.50
2022-11-05T10:30:53.053Z,96261.94
2022-11-05T10:32:03.066Z,96268.84
2022-11-05T10:33:07.470Z,96259.59
2022-11-05T10:34:17.983Z,96268.66
2022-11-05T10:35:22.740Z,96273.63
2022-11-05T10:36:32.153Z,96268.47
2022-11-05T10:37:39.562Z,96274.38
2022-11-05T10:38:45.584Z,96272.53
2022-11-05T10:39:51.679Z,96277.56
2022-11-05T10:41:07.042Z,96274.88
2022-11-05T10:42:37.142Z,96273.59
2022-11-05T10:43:45.287Z,96276.81
2022-11-05T10:44:56.147Z,96278.13
2022-11-05T10:46:06.446Z,96276.09
2022-11-05T10:47:30.125Z,96273.97
2022-11-05T10:48:52.512Z,96271.59
2022-11-05T10:49:58.848Z,96282.25
2022-11-05T10:51:04.653Z,96285.22
2022-11-05T10:52:21.930Z,96281.88
2022-11-05T10:53:35.134Z,96285.56
2022-11-05T10:54:40.048Z,96285.44
2022-11-05T10:55:47.368Z,96291.41
2022-11-05T10:56:52.111Z,96295.16
2022-11-05T10:57:54.643Z,96283.16
2022-11-05T10:59:06.691Z,96281.19
2022-11-05T11:00:30.687Z,96286.38
2022-11-05T11:01:33.576Z,96293.09
2022-11-05T11:02:41.124Z,96287.84
2022-11-05T11:03:49.346Z,96289.22
2022-11-05T11:04:53.490Z,96294.59
2022-11-05T11:06:04.356Z,96298.53
2022-11-05T11:07:22.302Z,96286.88
2022-11-05T11:08:25.525Z,96289.59
2022-11-05T11:09:34.280Z,96295.69
2022-11-05T11:10:40.839Z,96287.41
2022-11-05T11:11:46.076Z,96290.72
2022-11-05T11:12:49.867Z,96288.69
2022-11-05T11:14:02.932Z,96292.22
2022-11-05T11:15:17.466Z,96294.09
2022-11-05T11:16:22.526Z,96295.38
2022-11-05T11:17:32.110Z,96295.16
2022-11-05T11:18:40.404Z,96293.13
2022-11-05T11:19:45.381Z,96284.56
2022-11-05T11:20:47.413Z,96285.88
2022-11-05T11:22:19.505Z,96287.69
2022-11-05T11:23:24.239Z,96284.56
2022-11-05T11:24:32.499Z,96287.09
2022-11-05T11:25:45.628Z,96290.88
2022-11-05T11:26:50.259Z,96290.94
2022-11-05T11:27:53.367Z,96281.91
2022-11-05T11:29:02.025Z,96283.09
2022-11-05T11:30:09.349Z,96287.59
2022-11-05T11:31:16.246Z,96294.22
2022-11-05T11:32:20.654Z,96293.09
2022-11-05T11:33:29.531Z,96291.78
2022-11-05T11:34:34.382Z,96296.28
2022-11-05T11:35:41.449Z,96290.38
2022-11-05T11:36:48.655Z,96290.03
2022-11-05T11:37:57.274Z,96292.41
2022-11-05T11:39:02.900Z,96287.69
2022-11-05T11:40:17.958Z,96290.66
2022-11-05T11:41:27.080Z,96303.00
2022-11-05T11:42:37.563Z,96303.66
2022-11-05T11:43:41.683Z,96299.56
2022-11-05T11:44:49.433Z,96303.59
2022-11-05T11:46:00.656Z,96306.44
2022-11-05T11:47:15.702Z,96307.84
2022-11-05T11:48:24.697Z,96317.19
2022-11-05T11:49:36.706Z,96312.72
2022-11-05T11:50:44.588Z,96308.13
2022-11-05T11:51:49.996Z,96315.34
2022-11-05T11:52:57.565Z,96315.28
2022-11-05T11:54:03.535Z,96316.94
2022-11-05T11:55:25.303Z,96313.28
2022-11-05T11:56:32.573Z,96318.19
2022-11-05T11:57:43.835Z,96312.47
2022-11-05T11:58:50.547Z,96320.53
2022-11-05T12:00:11.548Z,96313.66
2022-11-05T12:01:27.654Z,96311.81
2022-11-05T12:03:01.866Z,96318.41
2022-11-05T12:04:20.844Z,96314.88
2022-11-05T12:05:32.810Z,96321.81
2022-11-05T12:06:44.251Z,96322.06
2022-11-05T12:07:52.938Z,96327.41
2022-11-05T12:09:09.921Z,96326.00
2022-11-05T12:10:35.871Z,96323.06
2022-11-05T12:11:46.690Z,96327.66
2022-11-05T12:13:04.157Z,96318.81
2022-11-05T12:14:25.507Z,96324.91
2022-11-05T12:15:42.682Z,96327.88
2022-11-05T12:17:03.930Z,96321.09
2022-11-05T12:18:09.958Z,96319.81
2022-11-05T12:19:27.649Z,96322.75
2022-11-05T12:21:04.015Z,96320.50
2022-11-05T12:22:20.949Z,96320.06
2022-11-05T12:23:43.233Z,96317.94
